createdAt,value
2018-07-15T00:00:11.966Z,99.90
2018-07-15T00:01:17.391Z,99.90
2018-07-15T00:02:22.853Z,99.90
2018-07-15T00:03:28.325Z,99.90
2018-07-15T00:04:33.934Z,99.90
2018-07-15T00:05:39.538Z,99.90
2018-07-15T00:06:44.965Z,99.90
2018-07-15T00:07:50.462Z,99.90
2018-07-15T00:08:55.977Z,99.90
2018-07-15T00:10:01.538Z,99.90
2018-07-15T00:11:07.002Z,99.90
2018-07-15T00:12:12.441Z,99.90
2018-07-15T00:13:17.845Z,99.90
2018-07-15T00:14:23.257Z,99.90
2018-07-15T00:15:28.785Z,99.90
2018-07-15T00:16:34.272Z,99.90
2018-07-15T00:17:39.713Z,99.90
2018-07-15T00:18:45.159Z,99.90
2018-07-15T00:19:50.602Z,99.90
2018-07-15T00:20:56.426Z,99.90
2018-07-15T00:22:01.994Z,99.90
2018-07-15T00:23:08.265Z,99.90
2018-07-15T00:24:13.698Z,99.90
2018-07-15T00:25:19.124Z,99.90
2018-07-15T00:26:24.589Z,99.90
2018-07-15T00:27:30.049Z,99.90
2018-07-15T00:28:35.481Z,99.90
2018-07-15T00:29:40.950Z,99.90
2018-07-15T00:30:46.372Z,99.90
2018-07-15T00:31:51.830Z,99.90
2018-07-15T00:32:57.289Z,99.90
2018-07-15T00:34:02.776Z,99.90
2018-07-15T00:35:08.327Z,99.90
2018-07-15T00:36:13.845Z,99.90
2018-07-15T00:37:19.318Z,99.90
2018-07-15T00:38:24.911Z,99.90
2018-07-15T00:39:30.324Z,99.90
2018-07-15T00:40:35.781Z,99.90
2018-07-15T00:41:41.290Z,99.90
2018-07-15T00:42:46.785Z,99.90
2018-07-15T00:43:52.646Z,99.90
2018-07-15T00:44:58.109Z,99.90
2018-07-15T00:46:03.601Z,99.90
2018-07-15T00:47:09.205Z,99.90
2018-07-15T00:48:14.678Z,99.90
2018-07-15T00:49:20.126Z,99.90
2018-07-15T00:50:25.621Z,99.90
2018-07-15T00:51:31.105Z,99.90
2018-07-15T00:52:36.573Z,99.90
2018-07-15T00:54:47.112Z,99.90
2018-07-15T00:55:52.544Z,99.90
2018-07-15T00:56:57.997Z,99.90
2018-07-15T00:58:03.446Z,99.90
2018-07-15T00:59:08.954Z,99.90
2018-07-15T01:00:18.818Z,99.90
2018-07-15T01:01:24.238Z,99.90
2018-07-15T01:02:29.665Z,99.90
2018-07-15T01:03:35.504Z,99.90
2018-07-15T01:04:40.945Z,99.90
2018-07-15T01:05:46.816Z,99.90
2018-07-15T01:06:52.294Z,99.90
2018-07-15T01:07:57.781Z,99.90
2018-07-15T01:09:03.276Z,99.90
2018-07-15T01:10:08.901Z,99.90
2018-07-15T01:11:14.385Z,99.90
2018-07-15T01:12:19.911Z,99.90
2018-07-15T01:13:25.541Z,99.90
2018-07-15T01:14:30.976Z,99.90
2018-07-15T01:15:36.501Z,99.90
2018-07-15T01:16:42.158Z,99.90
2018-07-15T01:17:47.655Z,99.90
2018-07-15T01:18:53.121Z,99.90
2018-07-15T01:19:58.552Z,99.90
2018-07-15T01:21:03.977Z,99.90
2018-07-15T01:22:09.471Z,99.90
2018-07-15T01:24:20.106Z,99.90
2018-07-15T01:25:25.552Z,99.90
2018-07-15T01:26:31.398Z,99.90
2018-07-15T01:27:36.829Z,99.90
2018-07-15T01:28:42.246Z,99.90
2018-07-15T01:29:47.662Z,99.90
2018-07-15T01:30:53.135Z,99.90
2018-07-15T01:31:58.569Z,99.90
2018-07-15T01:33:04.022Z,99.90
2018-07-15T01:34:09.437Z,99.90
2018-07-15T01:35:14.974Z,99.90
2018-07-15T01:36:20.443Z,99.90
2018-07-15T01:37:25.903Z,99.90
2018-07-15T01:38:31.857Z,99.90
2018-07-15T01:39:37.297Z,99.90
2018-07-15T01:40:42.719Z,99.90
2018-07-15T01:41:48.160Z,99.90
2018-07-15T01:42:53.580Z,99.90
2018-07-15T01:43:59.105Z,99.90
2018-07-15T01:45:04.594Z,99.90
2018-07-15T01:46:10.077Z,99.90
2018-07-15T01:47:15.690Z,99.90
2018-07-15T01:48:21.263Z,99.90
2018-07-15T01:49:26.762Z,99.90
2018-07-15T01:50:32.240Z,99.90
2018-07-15T01:51:37.657Z,99.90
2018-07-15T01:52:43.035Z,99.90
2018-07-15T01:53:48.573Z,99.90
2018-07-15T01:54:54.053Z,99.90
2018-07-15T01:55:59.501Z,99.90
2018-07-15T01:57:05.166Z,99.90
2018-07-15T01:58:10.627Z,99.90
2018-07-15T01:59:16.102Z,99.90
2018-07-15T02:00:21.593Z,99.90
2018-07-15T02:01:27.068Z,99.90
2018-07-15T02:02:32.479Z,99.90
2018-07-15T02:03:37.908Z,99.90
2018-07-15T02:04:43.369Z,99.90
2018-07-15T02:05:48.858Z,99.90
2018-07-15T02:06:54.289Z,99.90
2018-07-15T02:07:59.714Z,99.90
2018-07-15T02:09:05.821Z,99.90
2018-07-15T02:10:11.450Z,99.90
2018-07-15T02:11:16.841Z,99.90
2018-07-15T02:12:22.300Z,99.90
2018-07-15T02:13:27.749Z,99.90
2018-07-15T02:14:33.202Z,99.90
2018-07-15T02:15:38.637Z,99.90
2018-07-15T02:16:44.070Z,99.90
2018-07-15T02:17:49.519Z,99.90
2018-07-15T02:18:54.975Z,99.90
2018-07-15T02:20:00.420Z,99.90
2018-07-15T02:21:05.879Z,99.90
2018-07-15T02:22:11.337Z,99.90
2018-07-15T02:23:16.830Z,99.90
2018-07-15T02:24:22.249Z,99.90
2018-07-15T02:25:27.695Z,99.90
2018-07-15T02:26:33.217Z,99.90
2018-07-15T02:27:38.682Z,99.90
2018-07-15T02:28:44.079Z,99.90
2018-07-15T02:29:49.501Z,99.90
2018-07-15T02:30:54.973Z,99.90
2018-07-15T02:32:00.680Z,99.90
2018-07-15T02:33:06.468Z,99.90
2018-07-15T02:34:12.021Z,99.90
2018-07-15T02:35:17.438Z,99.90
2018-07-15T02:36:22.916Z,99.90
2018-07-15T02:37:28.401Z,99.90
2018-07-15T02:38:33.853Z,99.90
2018-07-15T02:39:39.291Z,99.90
2018-07-15T02:40:45.133Z,99.90
2018-07-15T02:41:50.650Z,99.90
2018-07-15T02:42:56.076Z,99.90
2018-07-15T02:44:01.518Z,99.90
2018-07-15T02:45:07.414Z,99.90
2018-07-15T02:46:12.883Z,99.90
2018-07-15T02:47:18.293Z,99.90
2018-07-15T02:48:23.758Z,99.90
2018-07-15T02:49:29.185Z,99.90
2018-07-15T02:50:34.625Z,99.90
2018-07-15T02:51:40.062Z,99.90
2018-07-15T02:52:45.536Z,99.90
2018-07-15T02:53:51.111Z,99.90
2018-07-15T02:54:56.570Z,99.90
2018-07-15T02:56:01.961Z,99.90
2018-07-15T02:57:07.421Z,99.90
2018-07-15T02:58:12.869Z,99.90
2018-07-15T02:59:18.299Z,99.90
2018-07-15T03:00:23.853Z,99.90
2018-07-15T03:01:29.305Z,99.90
2018-07-15T03:02:34.729Z,99.90
2018-07-15T03:03:40.144Z,99.90
2018-07-15T03:04:45.639Z,99.90
2018-07-15T03:05:51.186Z,99.90
2018-07-15T03:06:56.592Z,99.90
2018-07-15T03:08:02.034Z,99.90
2018-07-15T03:09:10.377Z,99.90
2018-07-15T03:10:16.061Z,99.90
2018-07-15T03:11:21.515Z,99.90
2018-07-15T03:12:26.946Z,99.90
2018-07-15T03:13:32.397Z,99.90
2018-07-15T03:14:37.924Z,99.90
2018-07-15T03:15:43.383Z,99.90
2018-07-15T03:16:48.850Z,99.90
2018-07-15T03:17:54.694Z,99.90
2018-07-15T03:19:00.157Z,99.90
2018-07-15T03:20:05.661Z,99.90
2018-07-15T03:21:11.108Z,99.90
2018-07-15T03:22:16.665Z,99.90
2018-07-15T03:23:22.720Z,99.90
2018-07-15T03:24:28.157Z,99.90
2018-07-15T03:25:33.574Z,99.90
2018-07-15T03:26:38.984Z,99.90
2018-07-15T03:27:44.519Z,99.90
2018-07-15T03:28:50.400Z,99.90
2018-07-15T03:29:55.842Z,99.90
2018-07-15T03:31:01.315Z,99.90
2018-07-15T03:33:11.794Z,99.90
2018-07-15T03:34:17.275Z,99.90
2018-07-15T03:35:22.866Z,99.90
2018-07-15T03:36:28.424Z,99.90
2018-07-15T03:37:33.957Z,99.90
2018-07-15T03:38:39.540Z,99.90
2018-07-15T03:39:45.058Z,99.90
2018-07-15T03:40:50.437Z,99.90
2018-07-15T03:41:55.856Z,99.90
2018-07-15T03:43:01.329Z,99.90
2018-07-15T03:44:07.121Z,99.90
2018-07-15T03:45:12.977Z,99.90
2018-07-15T03:46:18.449Z,99.90
2018-07-15T03:47:23.871Z,99.90
2018-07-15T03:48:29.297Z,99.90
2018-07-15T03:49:34.697Z,99.90
2018-07-15T03:50:40.293Z,99.90
2018-07-15T03:51:45.718Z,99.90
2018-07-15T03:52:51.177Z,99.90
2018-07-15T03:53:56.652Z,99.90
2018-07-15T03:55:02.105Z,99.90
2018-07-15T03:56:07.663Z,99.90
2018-07-15T03:58:18.118Z,99.90
2018-07-15T03:59:23.579Z,99.90
2018-07-15T04:00:29.021Z,99.90
2018-07-15T04:01:34.577Z,99.90
2018-07-15T04:02:40.011Z,99.90
2018-07-15T04:03:45.489Z,99.90
2018-07-15T04:04:50.917Z,99.90
2018-07-15T04:05:56.383Z,99.90
2018-07-15T04:07:01.901Z,99.90
2018-07-15T04:08:07.347Z,99.90
2018-07-15T04:09:12.762Z,99.90
2018-07-15T04:10:18.451Z,99.90
2018-07-15T04:11:23.841Z,99.90
2018-07-15T04:12:29.314Z,99.90
2018-07-15T04:13:35.182Z,99.90
2018-07-15T04:14:40.593Z,99.90
2018-07-15T04:15:46.041Z,99.90
2018-07-15T04:16:51.504Z,99.90
2018-07-15T04:18:05.441Z,99.90
2018-07-15T04:19:10.966Z,99.90
2018-07-15T04:20:16.438Z,99.90
2018-07-15T04:21:21.878Z,99.90
2018-07-15T04:22:27.394Z,99.90
2018-07-15T04:23:32.887Z,99.90
2018-07-15T04:24:38.320Z,99.90
2018-07-15T04:25:43.770Z,99.90
2018-07-15T04:26:49.206Z,99.90
2018-07-15T04:27:54.630Z,99.90
2018-07-15T04:29:00.418Z,99.90
2018-07-15T04:30:06.394Z,99.90
2018-07-15T04:31:11.838Z,99.90
2018-07-15T04:32:17.280Z,99.90
2018-07-15T04:33:22.737Z,99.90
2018-07-15T04:34:28.134Z,99.90
2018-07-15T04:35:33.611Z,99.90
2018-07-15T04:36:39.026Z,99.90
2018-07-15T04:37:44.477Z,99.90
2018-07-15T04:38:50.034Z,99.90
2018-07-15T04:39:55.469Z,99.90
2018-07-15T04:41:00.958Z,99.90
2018-07-15T04:42:06.437Z,99.90
2018-07-15T04:43:11.910Z,99.90
2018-07-15T04:44:17.382Z,99.90
2018-07-15T04:45:22.903Z,99.90
2018-07-15T04:46:28.421Z,99.90
2018-07-15T04:47:34.665Z,99.90
2018-07-15T04:48:40.204Z,99.90
2018-07-15T04:49:45.630Z,99.90
2018-07-15T04:50:51.054Z,99.90
2018-07-15T04:51:56.559Z,99.90
2018-07-15T04:53:02.006Z,99.90
2018-07-15T04:54:08.319Z,99.90
2018-07-15T04:55:13.751Z,99.90
2018-07-15T04:56:19.141Z,99.90
2018-07-15T04:57:24.758Z,99.90
2018-07-15T04:58:30.594Z,99.90
2018-07-15T04:59:36.130Z,99.90
2018-07-15T05:00:41.537Z,99.90
2018-07-15T05:01:46.944Z,99.90
2018-07-15T05:02:52.374Z,99.90
2018-07-15T05:03:57.942Z,99.90
2018-07-15T05:05:03.437Z,99.90
2018-07-15T05:06:08.938Z,99.90
2018-07-15T05:07:14.353Z,99.90
2018-07-15T05:08:19.889Z,99.90
2018-07-15T05:09:25.354Z,99.90
2018-07-15T05:10:30.850Z,99.90
2018-07-15T05:11:36.822Z,99.90
2018-07-15T05:12:42.334Z,99.90
2018-07-15T05:13:47.818Z,99.90
2018-07-15T05:14:53.249Z,99.90
2018-07-15T05:15:58.805Z,99.90
2018-07-15T05:17:04.205Z,99.90
2018-07-15T05:18:09.805Z,99.90
2018-07-15T05:19:15.398Z,99.90
2018-07-15T05:20:20.832Z,99.90
2018-07-15T05:21:26.777Z,99.90
2018-07-15T05:22:32.221Z,99.90
2018-07-15T05:23:37.654Z,99.90
2018-07-15T05:24:43.119Z,99.90
2018-07-15T05:25:48.621Z,99.90
2018-07-15T05:26:54.122Z,99.90
2018-07-15T05:27:59.561Z,99.90
2018-07-15T05:29:05.058Z,99.90
2018-07-15T05:30:10.517Z,99.90
2018-07-15T05:31:15.972Z,99.90
2018-07-15T05:32:21.430Z,99.90
2018-07-15T05:33:26.943Z,99.90
2018-07-15T05:34:32.377Z,99.90
2018-07-15T05:35:37.893Z,99.90
2018-07-15T05:36:43.348Z,99.90
2018-07-15T05:37:48.795Z,99.90
2018-07-15T05:38:54.260Z,99.90
2018-07-15T05:39:59.721Z,99.90
2018-07-15T05:41:05.201Z,99.90
2018-07-15T05:42:10.689Z,99.90
2018-07-15T05:43:16.148Z,99.90
2018-07-15T05:44:21.636Z,99.90
2018-07-15T05:45:27.069Z,99.90
2018-07-15T05:46:32.515Z,99.90
2018-07-15T05:47:38.043Z,99.90
2018-07-15T05:48:43.485Z,99.90
2018-07-15T05:49:48.969Z,99.90
2018-07-15T05:50:54.630Z,99.90
2018-07-15T05:52:00.186Z,99.90
2018-07-15T05:53:05.670Z,99.90
2018-07-15T05:54:11.162Z,99.90
2018-07-15T05:55:16.609Z,99.90
2018-07-15T05:56:22.079Z,99.90
2018-07-15T05:57:27.573Z,99.90
2018-07-15T05:58:33.498Z,99.90
2018-07-15T05:59:39.080Z,99.90
2018-07-15T06:00:44.589Z,99.90
2018-07-15T06:01:50.061Z,99.90
2018-07-15T06:02:55.509Z,99.90
2018-07-15T06:04:00.982Z,99.90
2018-07-15T06:05:06.610Z,99.90
2018-07-15T06:06:12.044Z,99.90
2018-07-15T06:07:17.465Z,99.90
2018-07-15T06:08:22.961Z,99.90
2018-07-15T06:09:28.389Z,99.90
2018-07-15T06:10:33.892Z,99.90
2018-07-15T06:11:39.340Z,99.90
2018-07-15T06:12:44.885Z,99.90
2018-07-15T06:13:50.682Z,99.90
2018-07-15T06:14:56.231Z,99.90
2018-07-15T06:16:01.677Z,99.90
2018-07-15T06:17:07.431Z,99.90
2018-07-15T06:18:12.915Z,99.90
2018-07-15T06:19:18.310Z,99.90
2018-07-15T06:20:23.829Z,99.90
2018-07-15T06:21:29.301Z,99.90
2018-07-15T06:22:34.772Z,99.90
2018-07-15T06:23:40.259Z,99.90
2018-07-15T06:24:45.693Z,99.90
2018-07-15T06:25:51.153Z,99.90
2018-07-15T06:26:56.610Z,99.90
2018-07-15T06:28:02.101Z,99.90
2018-07-15T06:29:07.601Z,99.90
2018-07-15T06:30:13.122Z,99.90
2018-07-15T06:31:18.651Z,99.90
2018-07-15T06:32:24.134Z,99.90
2018-07-15T06:33:29.536Z,99.90
2018-07-15T06:34:34.988Z,99.90
2018-07-15T06:35:40.453Z,99.90
2018-07-15T06:36:45.896Z,99.90
2018-07-15T06:37:51.561Z,99.90
2018-07-15T06:38:57.014Z,99.90
2018-07-15T06:40:02.573Z,99.90
2018-07-15T06:41:08.122Z,99.90
2018-07-15T06:42:13.918Z,99.90
2018-07-15T06:43:19.293Z,99.90
2018-07-15T06:44:24.738Z,99.90
2018-07-15T06:45:30.157Z,99.90
2018-07-15T06:46:35.609Z,99.90
2018-07-15T06:47:41.053Z,99.90
2018-07-15T06:48:46.481Z,99.90
2018-07-15T06:49:52.014Z,99.90
2018-07-15T06:50:57.444Z,99.90
2018-07-15T06:52:02.917Z,99.90
2018-07-15T06:53:08.378Z,99.90
2018-07-15T06:54:13.920Z,99.90
2018-07-15T06:55:19.420Z,99.90
2018-07-15T06:56:24.984Z,99.90
2018-07-15T06:57:30.894Z,99.90
2018-07-15T06:58:36.346Z,99.90
2018-07-15T06:59:41.903Z,99.90
2018-07-15T07:00:47.389Z,99.90
2018-07-15T07:01:52.905Z,99.90
2018-07-15T07:02:58.523Z,99.90
2018-07-15T07:04:04.110Z,99.90
2018-07-15T07:05:09.759Z,99.90
2018-07-15T07:06:15.252Z,99.90
2018-07-15T07:07:20.979Z,99.90
2018-07-15T07:08:26.406Z,99.90
2018-07-15T07:09:31.853Z,99.90
2018-07-15T07:10:37.284Z,99.90
2018-07-15T07:11:42.711Z,99.90
2018-07-15T07:12:48.162Z,99.90
2018-07-15T07:13:53.629Z,99.90
2018-07-15T07:14:59.060Z,99.90
2018-07-15T07:16:04.509Z,99.90
2018-07-15T07:17:09.992Z,99.90
2018-07-15T07:18:15.461Z,99.90
2018-07-15T07:19:20.908Z,99.90
2018-07-15T07:20:26.473Z,99.90
2018-07-15T07:21:32.021Z,99.90
2018-07-15T07:22:37.770Z,99.90
2018-07-15T07:23:43.182Z,99.90
2018-07-15T07:24:48.650Z,99.90
2018-07-15T07:25:54.074Z,99.90
2018-07-15T07:26:59.682Z,99.90
2018-07-15T07:28:05.277Z,99.90
2018-07-15T07:29:10.729Z,99.90
2018-07-15T07:30:16.392Z,99.90
2018-07-15T07:31:22.002Z,99.90
2018-07-15T07:32:27.614Z,99.90
2018-07-15T07:33:33.165Z,99.90
2018-07-15T07:34:38.609Z,99.90
2018-07-15T07:35:44.089Z,99.90
2018-07-15T07:36:49.692Z,99.90
2018-07-15T07:37:55.343Z,99.90
2018-07-15T07:39:00.761Z,99.90
2018-07-15T07:40:06.538Z,99.90
2018-07-15T07:41:12.564Z,99.90
2018-07-15T07:42:18.092Z,99.90
2018-07-15T07:43:23.549Z,99.90
2018-07-15T07:44:29.023Z,99.90
2018-07-15T07:45:34.555Z,99.90
2018-07-15T07:46:40.027Z,99.90
2018-07-15T07:47:45.547Z,99.90
2018-07-15T07:48:51.094Z,99.90
2018-07-15T07:49:56.619Z,99.90
2018-07-15T07:51:02.054Z,99.90
2018-07-15T07:52:09.070Z,99.90
2018-07-15T07:53:14.505Z,99.90
2018-07-15T07:54:20.235Z,99.90
2018-07-15T07:55:25.733Z,99.90
2018-07-15T07:56:31.145Z,99.90
2018-07-15T07:57:36.553Z,99.90
2018-07-15T07:58:41.997Z,99.90
2018-07-15T08:00:52.947Z,99.90
2018-07-15T08:01:58.467Z,99.90
2018-07-15T08:03:04.183Z,99.90
2018-07-15T08:04:09.719Z,99.90
2018-07-15T08:05:15.340Z,99.90
2018-07-15T08:06:21.156Z,99.90
2018-07-15T08:07:26.639Z,99.90
2018-07-15T08:08:32.126Z,99.90
2018-07-15T08:09:37.716Z,99.90
2018-07-15T08:10:43.207Z,99.90
2018-07-15T08:11:49.172Z,99.90
2018-07-15T08:12:54.682Z,99.90
2018-07-15T08:14:00.103Z,99.90
2018-07-15T08:15:05.661Z,99.90
2018-07-15T08:17:16.257Z,99.90
2018-07-15T08:18:21.665Z,99.90
2018-07-15T08:19:27.060Z,99.90
2018-07-15T08:20:34.152Z,99.90
2018-07-15T08:22:44.700Z,99.90
2018-07-15T08:23:50.247Z,99.90
2018-07-15T08:24:55.729Z,99.90
2018-07-15T08:26:01.222Z,99.90
2018-07-15T08:27:07.051Z,99.90
2018-07-15T08:28:12.547Z,99.90
2018-07-15T08:29:18.082Z,99.90
2018-07-15T08:30:40.373Z,99.90
2018-07-15T08:31:45.801Z,99.90
2018-07-15T08:32:51.204Z,99.90
2018-07-15T08:33:56.980Z,99.90
2018-07-15T08:35:02.500Z,99.90
2018-07-15T08:36:08.142Z,99.90
2018-07-15T08:37:13.572Z,99.90
2018-07-15T08:38:19.153Z,99.90
2018-07-15T08:39:24.631Z,99.90
2018-07-15T08:40:30.106Z,99.90
2018-07-15T08:41:36.185Z,99.90
2018-07-15T08:42:41.689Z,99.90
2018-07-15T08:43:47.130Z,99.90
2018-07-15T08:47:05.973Z,99.90
2018-07-15T08:48:11.534Z,99.90
2018-07-15T08:49:16.992Z,99.90
2018-07-15T08:51:27.869Z,99.90
2018-07-15T08:52:33.340Z,99.90
2018-07-15T08:53:38.779Z,99.90
2018-07-15T08:54:44.594Z,99.90
2018-07-15T08:55:50.129Z,99.90
2018-07-15T08:56:55.622Z,99.90
2018-07-15T08:58:01.225Z,99.90
2018-07-15T08:59:06.725Z,99.90
2018-07-15T09:00:12.289Z,99.90
2018-07-15T09:01:17.850Z,99.90
2018-07-15T09:02:23.377Z,99.90
2018-07-15T09:03:29.013Z,99.90
2018-07-15T09:04:34.496Z,99.90
2018-07-15T09:05:40.022Z,99.90
2018-07-15T09:06:45.849Z,99.90
2018-07-15T09:07:51.266Z,99.90
2018-07-15T09:08:56.689Z,99.90
2018-07-15T09:10:02.121Z,99.90
2018-07-15T09:11:07.535Z,99.90
2018-07-15T09:12:13.027Z,99.90
2018-07-15T09:13:18.508Z,99.90
2018-07-15T09:14:23.945Z,99.90
2018-07-15T09:15:29.415Z,99.90
2018-07-15T09:16:34.823Z,99.90
2018-07-15T09:18:45.789Z,99.90
2018-07-15T09:19:51.326Z,99.90
2018-07-15T09:20:57.649Z,99.90
2018-07-15T09:22:03.108Z,99.90
2018-07-15T09:23:08.826Z,99.90
2018-07-15T09:24:14.474Z,99.90
2018-07-15T09:25:19.928Z,99.90
2018-07-15T09:26:25.403Z,99.90
2018-07-15T09:27:30.949Z,99.90
2018-07-15T09:28:36.439Z,99.90
2018-07-15T09:29:42.080Z,99.90
2018-07-15T09:30:47.546Z,99.90
2018-07-15T09:31:52.979Z,99.90
2018-07-15T09:32:58.434Z,99.90
2018-07-15T09:34:03.912Z,99.90
2018-07-15T09:36:14.433Z,99.90
2018-07-15T09:37:19.996Z,99.90
2018-07-15T09:38:25.487Z,99.90
2018-07-15T09:39:31.147Z,99.90
2018-07-15T09:40:36.625Z,99.90
2018-07-15T09:41:42.073Z,99.90
2018-07-15T09:42:47.539Z,99.90
2018-07-15T09:44:58.651Z,99.90
2018-07-15T09:46:04.097Z,99.90
2018-07-15T09:47:09.541Z,99.90
2018-07-15T09:48:14.974Z,99.90
2018-07-15T09:49:20.851Z,99.90
2018-07-15T09:50:26.283Z,99.90
2018-07-15T09:51:31.706Z,99.90
2018-07-15T09:52:37.172Z,99.90
2018-07-15T09:53:42.656Z,99.90
2018-07-15T09:54:50.733Z,99.90
2018-07-15T09:55:56.186Z,99.90
2018-07-15T09:57:01.601Z,99.90
2018-07-15T09:58:07.019Z,99.90
2018-07-15T09:59:12.443Z,99.90
2018-07-15T10:00:22.958Z,99.90
2018-07-15T10:02:33.721Z,99.90
2018-07-15T10:03:39.159Z,99.90
2018-07-15T10:04:44.750Z,99.90
2018-07-15T10:05:50.175Z,99.90
2018-07-15T10:06:55.634Z,99.90
2018-07-15T10:08:01.235Z,99.90
2018-07-15T10:09:08.293Z,99.90
2018-07-15T10:10:13.681Z,99.90
2018-07-15T10:11:19.149Z,99.90
2018-07-15T10:12:24.639Z,99.90
2018-07-15T10:13:30.106Z,99.90
2018-07-15T10:14:36.371Z,99.90
2018-07-15T10:15:41.808Z,99.90
2018-07-15T10:16:47.219Z,99.90
2018-07-15T10:17:52.764Z,99.90
2018-07-15T10:18:58.228Z,99.90
2018-07-15T10:20:03.837Z,99.90
2018-07-15T10:21:09.246Z,99.90
2018-07-15T10:22:14.709Z,99.90
2018-07-15T10:23:20.117Z,99.90
2018-07-15T10:24:25.613Z,99.90
2018-07-15T10:25:31.138Z,99.90
2018-07-15T10:26:36.688Z,99.90
2018-07-15T10:27:42.131Z,99.90
2018-07-15T10:29:52.602Z,99.90
2018-07-15T10:30:58.018Z,99.90
2018-07-15T10:32:03.517Z,99.90
2018-07-15T10:33:09.002Z,99.90
2018-07-15T10:34:14.460Z,99.90
2018-07-15T10:35:19.949Z,99.90
2018-07-15T10:36:25.489Z,99.90
2018-07-15T10:37:31.053Z,99.90
2018-07-15T10:38:36.550Z,99.90
2018-07-15T10:39:42.004Z,99.90
2018-07-15T10:40:47.602Z,99.90
2018-07-15T10:41:53.049Z,99.90
2018-07-15T10:44:04.029Z,99.90
2018-07-15T10:45:09.501Z,99.90
2018-07-15T10:46:14.987Z,99.90
2018-07-15T10:47:20.633Z,99.90
2018-07-15T10:48:26.128Z,99.90
2018-07-15T10:49:31.585Z,99.90
2018-07-15T10:50:37.014Z,99.90
2018-07-15T10:51:42.521Z,99.90
2018-07-15T10:52:47.974Z,99.90
2018-07-15T10:53:53.487Z,99.90
2018-07-15T10:54:59.061Z,99.90
2018-07-15T10:56:04.497Z,99.90
2018-07-15T10:57:09.911Z,99.90
2018-07-15T10:58:15.398Z,99.90
2018-07-15T10:59:20.905Z,99.90
2018-07-15T11:00:26.340Z,99.90
2018-07-15T11:01:31.740Z,99.90
2018-07-15T11:02:37.245Z,99.90
2018-07-15T11:03:42.697Z,99.90
2018-07-15T11:04:48.242Z,99.90
2018-07-15T11:05:53.941Z,99.90
2018-07-15T11:06:59.822Z,99.90
2018-07-15T11:08:05.638Z,99.90
2018-07-15T11:09:11.198Z,99.90
2018-07-15T11:10:16.749Z,99.90
2018-07-15T11:11:22.197Z,99.90
2018-07-15T11:12:27.773Z,99.90
2018-07-15T11:13:33.254Z,99.90
2018-07-15T11:15:43.709Z,99.90
2018-07-15T11:16:49.269Z,99.90
2018-07-15T11:17:54.705Z,99.90
2018-07-15T11:20:05.733Z,99.90
2018-07-15T11:21:11.270Z,99.90
2018-07-15T11:22:16.810Z,99.90
2018-07-15T11:23:22.408Z,99.90
2018-07-15T11:24:27.895Z,99.90
2018-07-15T11:25:33.373Z,99.90
2018-07-15T11:26:38.876Z,99.90
2018-07-15T11:27:44.341Z,99.90
2018-07-15T11:28:49.856Z,99.90
2018-07-15T11:29:55.309Z,99.90
2018-07-15T11:31:00.805Z,99.90
2018-07-15T11:32:06.186Z,99.90
2018-07-15T11:33:11.717Z,99.90
2018-07-15T11:34:17.158Z,99.90
2018-07-15T11:35:22.589Z,99.90
2018-07-15T11:36:29.417Z,99.90
2018-07-15T11:37:34.874Z,99.90
2018-07-15T11:38:40.458Z,99.90
2018-07-15T11:39:45.899Z,99.90
2018-07-15T11:40:51.357Z,99.90
2018-07-15T11:41:56.810Z,99.90
2018-07-15T11:43:02.367Z,99.90
2018-07-15T11:44:08.011Z,99.90
2018-07-15T11:45:13.441Z,99.90
2018-07-15T11:46:18.952Z,99.90
2018-07-15T11:47:24.402Z,99.90
2018-07-15T11:48:30.024Z,99.90
2018-07-15T11:49:35.641Z,99.90
2018-07-15T11:50:41.133Z,99.90
2018-07-15T11:51:46.605Z,99.90
2018-07-15T11:52:52.566Z,99.90
2018-07-15T11:53:58.149Z,99.80
2018-07-15T11:55:04.015Z,99.80
2018-07-15T11:56:09.486Z,99.90
2018-07-15T11:57:14.941Z,99.50
2018-07-15T11:58:20.432Z,99.70
2018-07-15T11:59:32.547Z,99.80
2018-07-15T12:00:38.090Z,99.50
2018-07-15T12:01:43.688Z,99.90
2018-07-15T12:02:49.120Z,99.20
2018-07-15T12:03:54.545Z,98.80
2018-07-15T12:05:00.054Z,97.20
2018-07-15T12:06:05.591Z,97.80
2018-07-15T12:07:11.003Z,98.10
2018-07-15T12:08:16.475Z,98.50
2018-07-15T12:09:21.962Z,98.20
2018-07-15T12:10:27.404Z,97.90
2018-07-15T12:11:32.817Z,98.30
2018-07-15T12:12:38.301Z,97.80
2018-07-15T12:13:43.726Z,97.00
2018-07-15T12:14:49.161Z,96.90
2018-07-15T12:15:54.641Z,97.10
2018-07-15T12:17:00.097Z,96.80
2018-07-15T12:18:05.569Z,97.10
2018-07-15T12:19:11.059Z,97.20
2018-07-15T12:20:16.501Z,96.10
2018-07-15T12:21:22.011Z,94.00
2018-07-15T12:22:27.549Z,94.30
2018-07-15T12:23:33.094Z,95.00
2018-07-15T12:24:38.519Z,95.50
2018-07-15T12:25:43.964Z,96.90
2018-07-15T12:26:49.525Z,96.70
2018-07-15T12:27:54.993Z,96.50
2018-07-15T12:29:00.464Z,96.80
2018-07-15T12:30:06.072Z,97.20
2018-07-15T12:31:11.528Z,97.60
2018-07-15T12:32:17.173Z,97.30
2018-07-15T12:34:27.721Z,97.00
2018-07-15T12:35:33.297Z,96.70
2018-07-15T12:36:38.809Z,96.80
2018-07-15T12:37:44.282Z,96.90
2018-07-15T12:38:49.772Z,96.50
2018-07-15T12:39:55.196Z,96.60
2018-07-15T12:41:00.642Z,96.30
2018-07-15T12:42:06.103Z,95.80
2018-07-15T12:43:11.578Z,96.10
2018-07-15T12:44:17.094Z,95.80
2018-07-15T12:45:22.994Z,95.90
2018-07-15T12:46:28.433Z,94.90
2018-07-15T12:47:33.876Z,95.40
2018-07-15T12:48:39.305Z,95.80
2018-07-15T12:49:44.765Z,95.80
2018-07-15T12:50:50.713Z,96.20
2018-07-15T12:53:01.259Z,95.20
2018-07-15T12:54:06.854Z,93.10
2018-07-15T12:55:12.394Z,93.20
2018-07-15T12:56:17.874Z,93.30
2018-07-15T12:57:23.385Z,92.70
2018-07-15T12:58:28.825Z,93.10
2018-07-15T12:59:34.239Z,93.30
2018-07-15T13:00:40.130Z,93.50
2018-07-15T13:01:45.791Z,93.40
2018-07-15T13:02:51.264Z,93.10
2018-07-15T13:03:56.713Z,92.50
2018-07-15T13:05:02.218Z,92.90
2018-07-15T13:06:07.770Z,92.30
2018-07-15T13:07:13.335Z,91.80
2018-07-15T13:08:18.768Z,91.70
2018-07-15T13:09:24.233Z,91.50
2018-07-15T13:10:29.697Z,92.10
2018-07-15T13:11:35.220Z,92.30
2018-07-15T13:12:40.677Z,92.50
2018-07-15T13:13:46.164Z,92.60
2018-07-15T13:14:51.702Z,92.80
2018-07-15T13:15:57.194Z,92.20
2018-07-15T13:17:02.748Z,91.50
2018-07-15T13:18:08.172Z,91.20
2018-07-15T13:19:13.625Z,91.90
2018-07-15T13:20:19.109Z,92.30
2018-07-15T13:21:24.590Z,92.10
2018-07-15T13:22:30.081Z,91.80
2018-07-15T13:23:35.617Z,92.10
2018-07-15T13:24:41.129Z,91.90
2018-07-15T13:25:46.557Z,92.00
2018-07-15T13:26:52.023Z,91.70
2018-07-15T13:27:57.470Z,91.90
2018-07-15T13:29:03.233Z,91.40
2018-07-15T13:30:08.726Z,91.80
2018-07-15T13:31:14.168Z,91.50
2018-07-15T13:32:19.659Z,91.70
2018-07-15T13:33:25.135Z,91.80
2018-07-15T13:34:30.642Z,92.20
2018-07-15T13:36:41.138Z,91.80
2018-07-15T13:37:46.569Z,91.40
2018-07-15T13:38:51.974Z,91.40
2018-07-15T13:39:57.987Z,90.40
2018-07-15T13:41:03.566Z,89.60
2018-07-15T13:42:09.074Z,89.50
2018-07-15T13:43:14.523Z,89.90
2018-07-15T13:44:19.921Z,89.70
2018-07-15T13:45:25.461Z,89.70
2018-07-15T13:46:30.994Z,90.10
2018-07-15T13:47:36.528Z,90.80
2018-07-15T13:48:42.037Z,91.20
2018-07-15T13:49:47.540Z,91.50
2018-07-15T13:50:52.992Z,91.40
2018-07-15T13:51:58.442Z,91.30
2018-07-15T13:53:03.866Z,91.40
2018-07-15T13:54:09.433Z,90.90
2018-07-15T13:55:14.981Z,91.10
2018-07-15T13:56:20.617Z,91.30
2018-07-15T13:57:26.169Z,91.00
2018-07-15T13:58:31.683Z,91.00
2018-07-15T13:59:37.194Z,91.70
2018-07-15T14:00:42.656Z,92.00
2018-07-15T14:01:48.099Z,92.60
2018-07-15T14:02:53.660Z,88.90
2018-07-15T14:03:59.191Z,90.30
2018-07-15T14:05:04.890Z,90.00
2018-07-15T14:06:10.420Z,90.60
2018-07-15T14:07:16.009Z,91.50
2018-07-15T14:08:21.474Z,91.80
2018-07-15T14:09:27.055Z,91.40
2018-07-15T14:10:32.531Z,90.00
2018-07-15T14:11:38.371Z,89.80
2018-07-15T14:12:43.813Z,89.30
2018-07-15T14:13:49.428Z,89.50
2018-07-15T14:14:54.866Z,89.90
2018-07-15T14:16:00.349Z,90.60
2018-07-15T14:17:05.927Z,91.10
2018-07-15T14:18:11.777Z,91.60
2018-07-15T14:19:17.281Z,91.20
2018-07-15T14:20:22.750Z,90.70
2018-07-15T14:21:28.250Z,91.00
2018-07-15T14:22:33.789Z,91.30
2018-07-15T14:23:39.214Z,91.50
2018-07-15T14:24:44.637Z,91.40
2018-07-15T14:25:50.053Z,91.40
2018-07-15T14:26:55.663Z,90.50